createdAt,value
2022-11-13T00:01:10.862Z,74.18
2022-11-13T00:03:38.322Z,74.53
2022-11-13T00:06:05.494Z,74.57
2022-11-13T00:08:32.686Z,74.51
2022-11-13T00:11:26.165Z,74.55
2022-11-13T00:13:53.482Z,74.58
2022-11-13T00:16:22.066Z,74.61
2022-11-13T00:18:48.921Z,74.52
2022-11-13T00:21:19.439Z,74.59
2022-11-13T00:23:46.260Z,74.59
2022-11-13T00:26:19.134Z,74.69
2022-11-13T00:28:48.078Z,74.74
2022-11-13T00:31:15.915Z,74.73
2022-11-13T00:34:09.210Z,74.80
2022-11-13T00:36:30.455Z,74.81
2022-11-13T00:38:57.656Z,74.81
2022-11-13T00:41:25.037Z,74.81
2022-11-13T00:43:52.863Z,74.78
2022-11-13T00:46:20.108Z,74.81
2022-11-13T00:48:47.237Z,74.81
2022-11-13T00:51:14.383Z,74.82
2022-11-13T00:53:41.457Z,74.84
2022-11-13T00:56:08.918Z,74.92
2022-11-13T00:58:35.672Z,75.06
2022-11-13T01:01:15.445Z,74.96
2022-11-13T01:03:42.699Z,75.03
2022-11-13T01:06:19.125Z,74.97
2022-11-13T01:08:46.433Z,75.52
2022-11-13T01:11:16.691Z,75.10
2022-11-13T01:13:47.958Z,74.94
2022-11-13T01:16:17.337Z,75.26
2022-11-13T01:18:44.536Z,75.05
2022-11-13T01:21:21.180Z,75.10
2022-11-13T01:23:48.297Z,75.09
2022-11-13T01:26:16.940Z,75.01
2022-11-13T01:28:45.454Z,75.44
2022-11-13T01:31:16.809Z,75.12
2022-11-13T01:33:45.743Z,75.19
2022-11-13T01:36:15.697Z,75.18
2022-11-13T01:38:42.852Z,75.12
2022-11-13T01:41:22.947Z,75.01
2022-11-13T01:43:51.914Z,74.96
2022-11-13T01:46:19.028Z,74.88
2022-11-13T01:48:51.028Z,74.98
2022-11-13T01:51:26.107Z,74.92
2022-11-13T01:53:54.209Z,74.90
2022-11-13T01:56:22.727Z,74.92
2022-11-13T01:58:55.505Z,74.96
2022-11-13T02:01:23.474Z,74.87
2022-11-13T02:03:50.945Z,74.82
2022-11-13T02:06:18.694Z,74.88
2022-11-13T02:08:45.973Z,74.83
2022-11-13T02:11:13.432Z,74.85
2022-11-13T02:13:40.547Z,74.87
2022-11-13T02:16:12.069Z,74.83
2022-11-13T02:18:40.790Z,74.81
2022-11-13T02:21:36.086Z,74.75
2022-11-13T02:24:23.550Z,74.72
2022-11-13T02:26:52.501Z,74.81
2022-11-13T02:29:19.258Z,74.91
2022-11-13T02:31:46.321Z,74.94
2022-11-13T02:34:13.505Z,74.91
2022-11-13T02:36:40.639Z,74.93
2022-11-13T02:39:11.132Z,75.03
2022-11-13T02:41:38.652Z,74.93
2022-11-13T02:44:06.422Z,74.98
2022-11-13T02:46:34.659Z,75.00
2022-11-13T02:49:01.777Z,75.03
2022-11-13T02:51:28.881Z,75.11
2022-11-13T02:53:56.223Z,75.15
2022-11-13T02:56:23.435Z,75.15
2022-11-13T02:58:50.632Z,75.21
2022-11-13T03:01:18.073Z,75.37
2022-11-13T03:03:57.380Z,75.21
2022-11-13T03:06:25.085Z,75.20
2022-11-13T03:08:52.204Z,75.31
2022-11-13T03:11:19.300Z,75.23
2022-11-13T03:13:46.032Z,75.24
2022-11-13T03:16:15.599Z,75.26
2022-11-13T03:18:42.679Z,75.21
2022-11-13T03:21:11.873Z,75.38
2022-11-13T03:23:40.520Z,75.42
2022-11-13T03:26:09.375Z,75.45
2022-11-13T03:28:37.358Z,75.58
2022-11-13T03:31:06.603Z,75.58
2022-11-13T03:33:33.734Z,75.44
2022-11-13T03:36:01.372Z,75.58
2022-11-13T03:38:28.687Z,75.54
2022-11-13T03:40:56.058Z,75.49
2022-11-13T03:43:24.363Z,75.47
2022-11-13T03:45:51.179Z,75.37
2022-11-13T03:48:18.628Z,75.37
2022-11-13T03:50:48.606Z,75.45
2022-11-13T03:53:16.059Z,75.36
2022-11-13T03:55:43.805Z,75.23
2022-11-13T03:58:11.278Z,75.23
2022-11-13T04:00:39.673Z,75.21
2022-11-13T04:03:06.540Z,75.11
2022-11-13T04:05:33.894Z,75.16
2022-11-13T04:08:01.031Z,75.22
2022-11-13T04:10:27.951Z,75.18
2022-11-13T04:12:55.389Z,75.10
2022-11-13T04:15:22.237Z,74.62
2022-11-13T04:17:50.245Z,74.51
2022-11-13T04:20:17.897Z,74.80
2022-11-13T04:22:44.983Z,74.41
2022-11-13T04:25:11.781Z,74.45
2022-11-13T04:27:39.224Z,74.49
2022-11-13T04:30:06.727Z,74.46
2022-11-13T04:32:33.858Z,74.16
2022-11-13T04:35:01.074Z,74.28
2022-11-13T04:37:28.286Z,74.22
2022-11-13T04:39:55.381Z,73.88
2022-11-13T04:42:41.569Z,73.63
2022-11-13T04:45:08.902Z,74.00
2022-11-13T04:47:36.477Z,74.09
2022-11-13T04:50:04.461Z,73.94
2022-11-13T04:52:31.637Z,73.95
2022-11-13T04:54:58.812Z,73.70
2022-11-13T04:57:25.985Z,73.82
2022-11-13T04:59:53.070Z,73.80
2022-11-13T05:02:20.000Z,73.71
2022-11-13T05:04:47.246Z,73.58
2022-11-13T05:07:14.830Z,73.63
2022-11-13T05:09:42.148Z,73.56
2022-11-13T05:12:09.387Z,73.46
2022-11-13T05:14:37.580Z,73.28
2022-11-13T05:17:05.821Z,73.35
2022-11-13T05:19:34.095Z,73.20
2022-11-13T05:22:01.928Z,73.25
2022-11-13T05:24:29.303Z,73.24
2022-11-13T05:26:56.417Z,73.17
2022-11-13T05:29:23.550Z,73.16
2022-11-13T05:31:50.654Z,72.98
2022-11-13T05:34:17.841Z,73.03
2022-11-13T05:36:44.889Z,72.92
2022-11-13T05:39:12.038Z,72.77
2022-11-13T05:41:39.191Z,72.72
2022-11-13T05:44:06.319Z,72.72
2022-11-13T05:46:33.113Z,72.70
2022-11-13T05:49:01.837Z,72.75
2022-11-13T05:51:34.356Z,72.46
2022-11-13T05:54:01.776Z,72.37
2022-11-13T05:56:35.314Z,72.33
2022-11-13T05:59:04.074Z,72.27
2022-11-13T06:01:36.914Z,72.22
2022-11-13T06:04:05.360Z,72.18
2022-11-13T06:06:32.652Z,72.18
2022-11-13T06:09:01.721Z,72.12
2022-11-13T06:11:30.256Z,72.14
2022-11-13T06:13:59.050Z,72.15
2022-11-13T06:16:28.506Z,72.24
2022-11-13T06:18:57.791Z,72.20
2022-11-13T06:21:27.628Z,72.23
2022-11-13T06:23:55.651Z,72.19
2022-11-13T06:26:29.308Z,72.21
2022-11-13T06:28:56.743Z,72.17
2022-11-13T06:31:26.356Z,72.18
2022-11-13T06:33:54.028Z,72.20
2022-11-13T06:36:23.937Z,72.30
2022-11-13T06:38:51.832Z,72.32
2022-11-13T06:41:21.975Z,72.35
2022-11-13T06:43:50.189Z,72.36
2022-11-13T06:46:19.792Z,72.55
2022-11-13T06:48:47.449Z,72.64
2022-11-13T06:51:19.769Z,72.49
2022-11-13T06:53:47.642Z,72.44
2022-11-13T06:56:16.202Z,72.41
2022-11-13T06:58:44.288Z,72.65
2022-11-13T07:01:14.597Z,72.58
2022-11-13T07:03:42.328Z,72.52
2022-11-13T07:06:14.848Z,72.55
2022-11-13T07:08:43.120Z,72.60
2022-11-13T07:11:12.832Z,72.61
2022-11-13T07:13:40.061Z,72.54
2022-11-13T07:16:16.402Z,72.64
2022-11-13T07:18:50.224Z,72.57
2022-11-13T07:21:17.723Z,72.83
2022-11-13T07:23:44.833Z,73.00
2022-11-13T07:26:12.395Z,73.01
2022-11-13T07:28:40.021Z,72.89
2022-11-13T07:31:07.465Z,72.85
2022-11-13T07:33:35.012Z,73.05
2022-11-13T07:36:02.149Z,73.15
2022-11-13T07:38:29.599Z,73.18
2022-11-13T07:40:59.045Z,73.18
2022-11-13T07:43:26.446Z,73.18
2022-11-13T07:45:56.464Z,73.19
2022-11-13T07:48:24.141Z,73.22
2022-11-13T07:50:51.632Z,73.20
2022-11-13T07:53:20.699Z,73.09
2022-11-13T07:55:48.541Z,73.21
2022-11-13T07:58:18.195Z,73.19
2022-11-13T08:00:45.554Z,73.31
2022-11-13T08:03:14.741Z,73.16
2022-11-13T08:05:43.153Z,73.22
2022-11-13T08:08:14.888Z,72.99
2022-11-13T08:10:42.188Z,73.00
2022-11-13T08:13:11.313Z,72.99
2022-11-13T08:15:38.694Z,72.92
2022-11-13T08:18:06.203Z,72.83
2022-11-13T08:20:34.809Z,72.75
2022-11-13T08:23:03.331Z,72.67
2022-11-13T08:25:31.841Z,72.63
2022-11-13T08:27:59.600Z,72.58
2022-11-13T08:30:28.972Z,72.41
2022-11-13T08:32:55.813Z,72.32
2022-11-13T08:35:28.153Z,72.30
2022-11-13T08:38:02.116Z,72.24
2022-11-13T08:40:29.695Z,72.21
2022-11-13T08:43:01.653Z,72.19
2022-11-13T08:45:30.341Z,72.15
2022-11-13T08:48:02.820Z,72.09
2022-11-13T08:50:30.847Z,72.06
2022-11-13T08:52:59.235Z,71.99
2022-11-13T08:55:27.188Z,71.86
2022-11-13T08:57:54.509Z,71.97
2022-11-13T09:00:21.842Z,71.99
2022-11-13T09:02:54.168Z,72.16
2022-11-13T09:05:21.475Z,72.42
2022-11-13T09:07:48.880Z,72.53
2022-11-13T09:10:19.873Z,72.40
2022-11-13T09:12:46.957Z,72.47
2022-11-13T09:15:14.116Z,72.46
2022-11-13T09:17:41.190Z,72.52
2022-11-13T09:20:13.589Z,72.37
2022-11-13T09:22:40.852Z,72.32
2022-11-13T09:25:08.446Z,72.31
2022-11-13T09:27:35.914Z,72.40
2022-11-13T09:30:02.987Z,72.44
2022-11-13T09:32:30.402Z,72.55
2022-11-13T09:34:57.133Z,72.60
2022-11-13T09:37:24.550Z,72.57
2022-11-13T09:39:51.282Z,72.54
2022-11-13T09:42:22.715Z,72.58
2022-11-13T09:44:59.453Z,72.62
2022-11-13T09:47:32.130Z,72.68
2022-11-13T09:50:22.343Z,72.72
2022-11-13T09:52:50.051Z,72.71
2022-11-13T09:55:20.473Z,72.76
2022-11-13T09:58:14.439Z,72.77
2022-11-13T10:00:41.885Z,72.78
2022-11-13T10:03:11.298Z,72.78
2022-11-13T10:05:41.168Z,72.81
2022-11-13T10:08:20.318Z,72.77
2022-11-13T10:11:12.005Z,72.76
2022-11-13T10:13:51.208Z,72.80
2022-11-13T10:16:39.043Z,72.83
2022-11-13T10:19:22.398Z,72.89
2022-11-13T10:22:07.689Z,72.92
2022-11-13T10:24:44.304Z,72.88
2022-11-13T10:27:13.031Z,72.94
2022-11-13T10:29:44.848Z,73.06
2022-11-13T10:32:23.073Z,73.14
2022-11-13T10:35:19.941Z,73.19
2022-11-13T10:38:08.700Z,73.25
2022-11-13T10:40:39.815Z,73.33
2022-11-13T10:43:29.206Z,73.37
2022-11-13T10:45:59.413Z,73.41
2022-11-13T10:48:29.818Z,73.59
2022-11-13T10:51:04.868Z,73.61
2022-11-13T10:53:41.122Z,73.65
2022-11-13T10:56:36.280Z,73.78
2022-11-13T10:59:11.170Z,73.79
2022-11-13T11:01:39.763Z,73.90
2022-11-13T11:04:27.941Z,73.95
2022-11-13T11:07:19.093Z,74.06
2022-11-13T11:09:46.827Z,74.09
2022-11-13T11:12:19.721Z,74.23
2022-11-13T11:14:59.316Z,74.29
2022-11-13T11:17:35.525Z,74.32
2022-11-13T11:20:21.387Z,74.33
2022-11-13T11:22:53.348Z,74.40
2022-11-13T11:25:20.819Z,74.39
2022-11-13T11:27:55.697Z,74.46
2022-11-13T11:30:33.519Z,74.42
2022-11-13T11:33:13.383Z,74.43
2022-11-13T11:35:56.139Z,74.48
2022-11-13T11:38:30.365Z,74.31
2022-11-13T11:41:13.355Z,74.17
2022-11-13T11:43:44.477Z,74.08
2022-11-13T11:46:21.082Z,74.00
2022-11-13T11:48:48.239Z,73.98
2022-11-13T11:51:18.664Z,74.04
2022-11-13T11:54:24.437Z,73.97
2022-11-13T11:56:56.156Z,73.91
2022-11-13T11:59:43.412Z,73.85
2022-11-13T12:02:19.970Z,73.89
2022-11-13T12:05:20.136Z,73.86
2022-11-13T12:07:59.721Z,73.72
2022-11-13T12:10:58.094Z,73.79
2022-11-13T12:13:32.426Z,73.73
2022-11-13T12:16:31.441Z,73.73
2022-11-13T12:19:14.174Z,73.65
2022-11-13T12:22:04.161Z,73.57
2022-11-13T12:25:15.213Z,73.44
2022-11-13T12:27:56.958Z,73.42
2022-11-13T12:30:50.410Z,73.44
2022-11-13T12:33:32.143Z,73.46
2022-11-13T12:36:01.330Z,73.34
2022-11-13T12:38:57.217Z,73.30
2022-11-13T12:41:24.715Z,73.29
2022-11-13T12:44:27.648Z,73.27
2022-11-13T12:46:56.933Z,73.34
2022-11-13T12:49:23.627Z,73.38
2022-11-13T12:52:03.317Z,73.41
2022-11-13T12:54:36.868Z,73.43
2022-11-13T12:57:13.498Z,73.44
2022-11-13T12:59:47.437Z,73.42
2022-11-13T13:02:14.793Z,73.43
2022-11-13T13:05:07.518Z,73.40
2022-11-13T13:07:44.096Z,73.37
2022-11-13T13:10:20.662Z,73.33
2022-11-13T13:13:23.943Z,73.28
2022-11-13T13:15:57.834Z,73.31
2022-11-13T13:18:29.526Z,73.36
2022-11-13T13:21:06.763Z,73.38
2022-11-13T13:23:37.774Z,73.39
2022-11-13T13:26:15.633Z,73.40
2022-11-13T13:28:54.503Z,73.34
2022-11-13T13:31:30.903Z,73.36
2022-11-13T13:34:24.029Z,73.39
2022-11-13T13:37:17.329Z,73.35
2022-11-13T13:39:53.100Z,73.33
2022-11-13T13:42:49.730Z,73.32
2022-11-13T13:45:41.193Z,73.38
2022-11-13T13:48:14.281Z,73.24
2022-11-13T13:50:47.075Z,73.15
2022-11-13T13:53:22.017Z,73.12
2022-11-13T13:55:52.714Z,73.13
2022-11-13T13:58:32.026Z,73.12
2022-11-13T14:01:18.323Z,73.11
2022-11-13T14:03:45.783Z,73.13
2022-11-13T14:06:23.932Z,73.16
2022-11-13T14:08:51.040Z,73.20
2022-11-13T14:11:21.155Z,73.27
2022-11-13T14:13:48.374Z,73.34
2022-11-13T14:16:15.657Z,73.36
2022-11-13T14:18:42.879Z,73.34
2022-11-13T14:21:16.976Z,73.33
2022-11-13T14:23:47.886Z,73.38
2022-11-13T14:26:15.349Z,73.40
2022-11-13T14:29:15.487Z,73.41
2022-11-13T14:31:43.042Z,73.47
2022-11-13T14:34:14.898Z,73.52
2022-11-13T14:36:42.558Z,73.54
2022-11-13T14:39:32.983Z,73.60
2022-11-13T14:42:00.600Z,73.65
2022-11-13T14:44:32.324Z,73.71
2022-11-13T14:47:06.918Z,73.74
2022-11-13T14:49:37.220Z,73.79
2022-11-13T14:52:04.818Z,73.83
2022-11-13T14:55:00.108Z,73.93
2022-11-13T14:57:21.080Z,74.00
2022-11-13T14:59:48.254Z,74.11
2022-11-13T15:02:15.560Z,74.27
2022-11-13T15:04:43.077Z,74.37
2022-11-13T15:07:32.029Z,74.48
2022-11-13T15:10:00.424Z,74.64
2022-11-13T15:12:27.300Z,74.80
2022-11-13T15:14:54.768Z,74.92
2022-11-13T15:17:23.115Z,74.99
2022-11-13T15:19:54.355Z,75.06
2022-11-13T15:22:29.060Z,75.09
2022-11-13T15:24:56.451Z,75.10
2022-11-13T15:27:24.076Z,75.24
2022-11-13T15:29:50.896Z,75.35
2022-11-13T15:32:18.375Z,75.38
2022-11-13T15:34:45.538Z,75.42
2022-11-13T15:37:14.401Z,75.55
2022-11-13T15:39:42.047Z,75.60
2022-11-13T15:42:15.637Z,75.69
2022-11-13T15:44:43.276Z,75.72
2022-11-13T15:47:26.195Z,75.75
2022-11-13T15:50:12.561Z,75.71
2022-11-13T15:52:42.832Z,75.75
2022-11-13T15:55:32.070Z,75.82
2022-11-13T15:58:03.439Z,75.79
2022-11-13T16:00:31.061Z,75.83
2022-11-13T16:02:58.580Z,75.97
2022-11-13T16:05:29.443Z,75.94
2022-11-13T16:07:57.605Z,75.93
2022-11-13T16:10:27.669Z,76.02
2022-11-13T16:12:54.958Z,76.00
2022-11-13T16:15:22.623Z,76.14
2022-11-13T16:17:54.930Z,76.17
2022-11-13T16:20:22.127Z,76.29
2022-11-13T16:22:50.250Z,76.42
2022-11-13T16:25:20.446Z,76.47
2022-11-13T16:27:48.238Z,76.57
2022-11-13T16:30:20.886Z,76.43
2022-11-13T16:32:48.108Z,76.59
2022-11-13T16:35:17.382Z,76.71
2022-11-13T16:37:44.801Z,76.88
2022-11-13T16:40:19.655Z,76.88
2022-11-13T16:42:47.281Z,76.89
2022-11-13T16:45:14.684Z,76.93
2022-11-13T16:47:42.463Z,76.88
2022-11-13T16:50:15.832Z,76.87
2022-11-13T16:52:43.141Z,76.83
2022-11-13T16:55:11.083Z,76.86
2022-11-13T16:57:39.279Z,77.01
2022-11-13T17:00:08.904Z,77.04
2022-11-13T17:02:36.768Z,76.97
2022-11-13T17:05:05.145Z,77.02
2022-11-13T17:07:32.515Z,77.09
2022-11-13T17:10:29.106Z,77.04
2022-11-13T17:12:52.590Z,76.88
2022-11-13T17:15:20.765Z,76.94
2022-11-13T17:17:49.078Z,76.84
2022-11-13T17:20:18.658Z,76.83
2022-11-13T17:22:49.232Z,76.79
2022-11-13T17:25:17.670Z,76.94
2022-11-13T17:27:45.367Z,76.89
2022-11-13T17:30:13.766Z,76.93
2022-11-13T17:32:40.972Z,76.96
2022-11-13T17:35:12.141Z,76.89
2022-11-13T17:37:40.482Z,76.91
2022-11-13T17:40:08.777Z,76.90
2022-11-13T17:42:36.257Z,76.93
2022-11-13T17:45:03.544Z,76.92
2022-11-13T17:47:30.836Z,76.93
2022-11-13T17:50:05.582Z,76.81
2022-11-13T17:52:34.926Z,76.83
2022-11-13T17:55:06.439Z,76.91
2022-11-13T17:57:34.551Z,76.87
2022-11-13T18:00:01.988Z,76.89
2022-11-13T18:02:30.053Z,76.81
2022-11-13T18:04:59.638Z,76.86
2022-11-13T18:07:26.933Z,76.78
2022-11-13T18:09:54.914Z,76.88
2022-11-13T18:12:22.592Z,76.90
2022-11-13T18:14:53.088Z,76.96
2022-11-13T18:17:21.066Z,76.99
2022-11-13T18:19:49.604Z,76.95
2022-11-13T18:22:17.667Z,76.80
2022-11-13T18:24:45.286Z,76.88
2022-11-13T18:27:12.899Z,76.82
2022-11-13T18:29:42.187Z,76.94
2022-11-13T18:32:09.871Z,76.90
2022-11-13T18:34:37.817Z,76.97
2022-11-13T18:37:06.125Z,76.83
2022-11-13T18:39:33.449Z,76.82
2022-11-13T18:42:01.159Z,77.06
2022-11-13T18:44:29.680Z,76.96
2022-11-13T18:46:56.541Z,76.85
2022-11-13T18:49:24.169Z,76.84
2022-11-13T18:51:52.194Z,76.68
2022-11-13T18:54:19.601Z,76.68
2022-11-13T18:56:47.317Z,76.55
2022-11-13T18:59:14.828Z,76.69
2022-11-13T19:01:42.978Z,76.59
2022-11-13T19:04:26.112Z,76.61
2022-11-13T19:06:53.849Z,76.50
2022-11-13T19:09:22.450Z,76.66
2022-11-13T19:11:51.725Z,76.69
2022-11-13T19:14:19.975Z,76.55
2022-11-13T19:16:47.459Z,76.48
2022-11-13T19:19:21.900Z,76.59
2022-11-13T19:21:50.161Z,76.56
2022-11-13T19:24:18.629Z,76.68
2022-11-13T19:26:46.743Z,76.70
2022-11-13T19:29:14.659Z,76.58
2022-11-13T19:31:42.446Z,76.47
2022-11-13T19:34:10.890Z,76.26
2022-11-13T19:36:41.455Z,76.26
2022-11-13T19:39:10.592Z,76.19
2022-11-13T19:41:38.577Z,76.20
2022-11-13T19:44:07.391Z,76.27
2022-11-13T19:46:35.401Z,76.33
2022-11-13T19:49:03.516Z,76.42
2022-11-13T19:51:34.041Z,76.41
2022-11-13T19:54:02.179Z,76.30
2022-11-13T19:56:30.215Z,76.15
2022-11-13T19:58:57.593Z,76.21
2022-11-13T20:01:28.313Z,76.18
2022-11-13T20:03:57.773Z,76.17
2022-11-13T20:06:26.437Z,76.28
2022-11-13T20:08:54.975Z,76.19
2022-11-13T20:11:22.600Z,76.10
2022-11-13T20:13:50.513Z,75.97
2022-11-13T20:16:21.439Z,76.02
2022-11-13T20:18:49.085Z,76.05
2022-11-13T20:21:27.755Z,76.08
2022-11-13T20:23:59.820Z,76.07
2022-11-13T20:26:28.865Z,76.01
2022-11-13T20:28:56.251Z,75.97
2022-11-13T20:31:25.587Z,75.86
2022-11-13T20:33:55.286Z,75.75
2022-11-13T20:36:23.558Z,75.67
2022-11-13T20:38:53.847Z,75.79
2022-11-13T20:41:22.490Z,75.72
2022-11-13T20:43:51.041Z,75.53
2022-11-13T20:46:21.401Z,75.48
2022-11-13T20:48:49.204Z,75.50
2022-11-13T20:51:20.940Z,75.42
2022-11-13T20:53:50.115Z,75.39
2022-11-13T20:56:19.084Z,75.32
2022-11-13T20:58:47.203Z,75.29
2022-11-13T21:01:18.131Z,75.16
2022-11-13T21:03:46.494Z,75.06
2022-11-13T21:06:16.901Z,75.15
2022-11-13T21:08:44.705Z,75.04
2022-11-13T21:11:19.500Z,74.96
2022-11-13T21:13:49.405Z,75.05
2022-11-13T21:16:17.578Z,74.89
2022-11-13T21:18:44.982Z,74.80
2022-11-13T21:21:16.597Z,74.79
2022-11-13T21:23:43.797Z,74.71
2022-11-13T21:26:11.596Z,74.63
2022-11-13T21:28:40.994Z,74.64
2022-11-13T21:31:12.665Z,74.65
2022-11-13T21:33:42.614Z,74.58
2022-11-13T21:36:15.924Z,74.48
2022-11-13T21:38:43.640Z,74.52
2022-11-13T21:41:21.935Z,74.53
2022-11-13T21:44:01.145Z,74.48
2022-11-13T21:46:31.430Z,74.44
2022-11-13T21:49:01.010Z,74.50
2022-11-13T21:51:28.649Z,74.30
2022-11-13T21:53:57.149Z,74.30
2022-11-13T21:56:25.422Z,74.31
2022-11-13T21:58:52.607Z,74.29
2022-11-13T22:01:19.927Z,74.25
2022-11-13T22:03:47.402Z,74.18
2022-11-13T22:06:22.123Z,74.20
2022-11-13T22:09:20.010Z,74.16
2022-11-13T22:11:47.392Z,74.12
2022-11-13T22:14:14.545Z,74.18
2022-11-13T22:16:43.909Z,74.13
2022-11-13T22:19:14.895Z,74.08
2022-11-13T22:21:42.520Z,74.01
2022-11-13T22:24:10.186Z,74.03
2022-11-13T22:26:40.436Z,74.08
2022-11-13T22:29:07.701Z,74.09
2022-11-13T22:31:36.373Z,74.02
2022-11-13T22:34:03.820Z,74.02
2022-11-13T22:36:36.256Z,74.03
2022-11-13T22:39:04.689Z,73.95
2022-11-13T22:41:34.084Z,73.91
2022-11-13T22:44:07.588Z,73.87
2022-11-13T22:46:36.068Z,73.85
2022-11-13T22:49:05.356Z,73.88
2022-11-13T22:51:37.984Z,74.04
2022-11-13T22:54:10.910Z,74.05
2022-11-13T22:56:39.825Z,73.97
2022-11-13T22:59:09.643Z,73.96
2022-11-13T23:01:38.779Z,73.89
2022-11-13T23:04:08.002Z,74.00
2022-11-13T23:06:36.522Z,73.91
2022-11-13T23:09:05.516Z,73.96
2022-11-13T23:11:35.216Z,73.62
2022-11-13T23:14:05.984Z,73.79
2022-11-13T23:16:33.876Z,73.63
2022-11-13T23:19:02.295Z,73.79
2022-11-13T23:21:30.297Z,73.81
2022-11-13T23:23:57.992Z,73.71
2022-11-13T23:26:26.249Z,73.47
2022-11-13T23:28:53.106Z,73.54
2022-11-13T23:31:20.824Z,73.37
2022-11-13T23:33:48.401Z,73.57
2022-11-13T23:36:18.027Z,73.49
2022-11-13T23:38:45.394Z,73.37
2022-11-13T23:41:13.305Z,73.31
2022-11-13T23:46:27.539Z,73.29
2022-11-13T23:48:54.320Z,73.36
2022-11-13T23:51:21.419Z,73.24
2022-11-13T23:53:48.538Z,73.07
2022-11-13T23:56:15.654Z,72.97
2022-11-13T23:58:42.538Z,73.00
